createdAt,value
2024-02-07T00:01:30.689Z,95.74
2024-02-07T00:04:00.142Z,95.48
2024-02-07T00:06:27.432Z,95.79
2024-02-07T00:08:54.053Z,95.68
2024-02-07T00:11:21.112Z,96.13
2024-02-07T00:13:47.902Z,95.89
2024-02-07T00:16:14.707Z,96.08
2024-02-07T00:18:41.459Z,95.70
2024-02-07T00:21:09.590Z,95.85
2024-02-07T00:23:36.495Z,95.86
2024-02-07T00:26:03.429Z,95.57
2024-02-07T00:28:30.103Z,95.79
2024-02-07T00:30:57.094Z,95.73
2024-02-07T00:33:23.690Z,95.52
2024-02-07T00:35:50.708Z,95.87
2024-02-07T00:38:17.623Z,95.68
2024-02-07T00:40:44.511Z,96.29
2024-02-07T00:43:15.324Z,95.83
2024-02-07T00:45:43.158Z,95.49
2024-02-07T00:48:09.698Z,96.01
2024-02-07T00:50:36.562Z,95.62
2024-02-07T00:53:03.183Z,95.44
2024-02-07T00:55:30.121Z,95.83
2024-02-07T00:57:56.810Z,95.44
2024-02-07T01:00:24.619Z,95.92
2024-02-07T01:02:51.774Z,95.87
2024-02-07T01:05:19.124Z,95.84
2024-02-07T01:07:45.612Z,95.80
2024-02-07T01:10:12.871Z,95.95
2024-02-07T01:12:40.377Z,96.01
2024-02-07T01:15:08.774Z,95.94
2024-02-07T01:17:35.547Z,96.30
2024-02-07T01:20:07.790Z,96.02
2024-02-07T01:22:34.593Z,95.38
2024-02-07T01:25:01.632Z,96.50
2024-02-07T01:27:28.156Z,96.36
2024-02-07T01:29:56.769Z,95.98
2024-02-07T01:32:23.539Z,96.25
2024-02-07T01:34:50.998Z,95.87
2024-02-07T01:37:17.592Z,96.21
2024-02-07T01:39:44.839Z,95.75
2024-02-07T01:42:12.101Z,96.19
2024-02-07T01:44:39.008Z,95.71
2024-02-07T01:47:13.253Z,95.78
2024-02-07T01:49:45.796Z,95.63
2024-02-07T01:52:14.222Z,96.41
2024-02-07T01:54:41.698Z,96.29
2024-02-07T01:57:08.646Z,96.28
2024-02-07T01:59:40.660Z,96.49
2024-02-07T02:02:08.434Z,96.54
2024-02-07T02:04:35.634Z,96.73
2024-02-07T02:07:02.232Z,96.96
2024-02-07T02:09:30.042Z,96.90
2024-02-07T02:11:58.865Z,96.89
2024-02-07T02:14:27.958Z,96.33
2024-02-07T02:16:54.647Z,96.36
2024-02-07T02:19:22.342Z,96.61
2024-02-07T02:22:23.933Z,96.49
2024-02-07T02:25:03.849Z,96.37
2024-02-07T02:27:39.374Z,96.91
2024-02-07T02:30:20.551Z,97.20
2024-02-07T02:32:49.831Z,97.44
2024-02-07T02:35:19.105Z,97.71
2024-02-07T02:37:46.813Z,98.17
2024-02-07T02:40:13.916Z,98.46
2024-02-07T02:42:40.871Z,98.54
2024-02-07T02:45:08.317Z,99.20
2024-02-07T02:47:34.927Z,99.22
2024-02-07T02:50:02.069Z,99.91
2024-02-07T02:52:29.534Z,99.77
2024-02-07T02:54:57.166Z,99.67
2024-02-07T02:57:23.620Z,99.60
2024-02-07T02:59:51.247Z,99.45
2024-02-07T03:02:20.562Z,99.50
2024-02-07T03:04:50.627Z,99.80
2024-02-07T03:07:36.115Z,100.00
2024-02-07T03:10:06.650Z,100.00
2024-02-07T03:12:33.429Z,99.91
2024-02-07T03:15:00.302Z,100.00
2024-02-07T03:17:26.895Z,100.00
2024-02-07T03:19:53.809Z,100.00
2024-02-07T03:22:20.390Z,100.00
2024-02-07T03:24:47.753Z,100.00
2024-02-07T03:27:14.248Z,100.00
2024-02-07T03:29:40.941Z,100.00
2024-02-07T03:32:08.060Z,100.00
2024-02-07T03:34:37.550Z,100.00
2024-02-07T03:37:05.100Z,100.00
2024-02-07T03:39:31.923Z,100.00
2024-02-07T03:41:58.353Z,100.00
2024-02-07T03:44:25.415Z,100.00
2024-02-07T03:46:52.234Z,100.00
2024-02-07T03:49:21.108Z,100.00
2024-02-07T03:51:47.997Z,100.00
2024-02-07T03:54:15.189Z,100.00
2024-02-07T03:56:41.816Z,100.00
2024-02-07T03:59:08.843Z,100.00
2024-02-07T04:01:35.993Z,100.00
2024-02-07T04:04:06.389Z,100.00
2024-02-07T04:06:34.216Z,100.00
2024-02-07T04:09:05.870Z,100.00
2024-02-07T04:11:32.523Z,100.00
2024-02-07T04:13:59.225Z,100.00
2024-02-07T04:16:44.872Z,100.00
2024-02-07T04:19:30.636Z,100.00
2024-02-07T04:22:15.875Z,100.00
2024-02-07T04:25:01.446Z,100.00
2024-02-07T04:27:47.038Z,100.00
2024-02-07T04:30:32.446Z,100.00
2024-02-07T04:33:17.789Z,100.00
2024-02-07T04:36:03.188Z,100.00
2024-02-07T04:38:48.141Z,100.00
2024-02-07T04:41:33.844Z,100.00
2024-02-07T04:44:18.976Z,100.00
2024-02-07T04:47:04.449Z,100.00
2024-02-07T04:49:49.773Z,100.00
2024-02-07T04:52:35.347Z,100.00
2024-02-07T04:55:20.796Z,100.00
2024-02-07T04:58:06.181Z,100.00
2024-02-07T05:00:51.114Z,100.00
2024-02-07T05:03:36.482Z,100.00
2024-02-07T05:06:21.779Z,100.00
2024-02-07T05:09:07.030Z,100.00
2024-02-07T05:11:52.563Z,100.00
2024-02-07T05:14:38.004Z,100.00
2024-02-07T05:17:04.666Z,100.00
2024-02-07T05:19:31.697Z,100.00
2024-02-07T05:21:58.971Z,100.00
2024-02-07T05:24:25.805Z,100.00
2024-02-07T05:26:52.939Z,100.00
2024-02-07T05:29:19.846Z,100.00
2024-02-07T05:31:46.942Z,100.00
2024-02-07T05:34:14.948Z,100.00
2024-02-07T05:36:41.922Z,100.00
2024-02-07T05:39:08.673Z,100.00
2024-02-07T05:41:35.293Z,100.00
2024-02-07T05:44:02.074Z,100.00
2024-02-07T05:46:28.670Z,100.00
2024-02-07T05:48:55.466Z,100.00
2024-02-07T05:51:23.188Z,100.00
2024-02-07T05:53:49.985Z,100.00
2024-02-07T05:56:16.657Z,100.00
2024-02-07T05:58:43.702Z,100.00
2024-02-07T06:01:11.087Z,100.00
2024-02-07T06:03:38.324Z,100.00
2024-02-07T06:06:06.759Z,100.00
2024-02-07T06:08:33.759Z,100.00
2024-02-07T06:11:00.928Z,100.00
2024-02-07T06:13:28.236Z,100.00
2024-02-07T06:15:54.786Z,100.00
2024-02-07T06:18:21.492Z,100.00
2024-02-07T06:20:48.104Z,100.00
2024-02-07T06:23:15.018Z,100.00
2024-02-07T06:25:42.394Z,100.00
2024-02-07T06:28:09.247Z,100.00
2024-02-07T06:30:35.837Z,100.00
2024-02-07T06:33:04.441Z,100.00
2024-02-07T06:35:31.202Z,100.00
2024-02-07T06:37:58.150Z,100.00
2024-02-07T06:40:24.685Z,100.00
2024-02-07T06:42:51.520Z,100.00
2024-02-07T06:45:18.045Z,100.00
2024-02-07T06:47:44.868Z,100.00
2024-02-07T06:50:11.607Z,100.00
2024-02-07T06:52:40.165Z,100.00
2024-02-07T06:55:06.931Z,100.00
2024-02-07T06:57:34.148Z,100.00
2024-02-07T07:00:00.642Z,100.00
2024-02-07T07:02:27.637Z,100.00
2024-02-07T07:04:54.356Z,100.00
2024-02-07T07:07:21.432Z,100.00
2024-02-07T07:09:47.997Z,100.00
2024-02-07T07:12:14.948Z,100.00
2024-02-07T07:14:41.571Z,100.00
2024-02-07T07:17:08.742Z,100.00
2024-02-07T07:19:35.949Z,100.00
2024-02-07T07:22:02.809Z,100.00
2024-02-07T07:24:29.264Z,100.00
2024-02-07T07:26:56.996Z,100.00
2024-02-07T07:29:24.666Z,100.00
2024-02-07T07:31:51.806Z,100.00
2024-02-07T07:34:18.438Z,100.00
2024-02-07T07:36:45.307Z,100.00
2024-02-07T07:39:11.760Z,100.00
2024-02-07T07:41:39.234Z,100.00
2024-02-07T07:44:06.273Z,100.00
2024-02-07T07:46:33.368Z,100.00
2024-02-07T07:49:00.832Z,100.00
2024-02-07T07:51:27.886Z,100.00
2024-02-07T07:53:55.463Z,100.00
2024-02-07T07:56:23.647Z,100.00
2024-02-07T07:58:53.155Z,100.00
2024-02-07T08:01:22.109Z,100.00
2024-02-07T08:03:49.027Z,100.00
2024-02-07T08:06:16.406Z,100.00
2024-02-07T08:08:43.275Z,100.00
2024-02-07T08:11:10.121Z,100.00
2024-02-07T08:13:36.787Z,100.00
2024-02-07T08:16:03.941Z,100.00
2024-02-07T08:18:31.072Z,100.00
2024-02-07T08:20:58.074Z,100.00
2024-02-07T08:23:25.008Z,100.00
2024-02-07T08:25:52.208Z,100.00
2024-02-07T08:28:19.062Z,100.00
2024-02-07T08:30:45.868Z,100.00
2024-02-07T08:33:13.214Z,100.00
2024-02-07T08:35:40.786Z,100.00
2024-02-07T08:38:07.462Z,100.00
2024-02-07T08:40:34.486Z,100.00
2024-02-07T08:43:03.724Z,100.00
2024-02-07T08:45:30.432Z,100.00
2024-02-07T08:47:56.716Z,100.00
2024-02-07T08:50:23.481Z,100.00
2024-02-07T08:52:49.846Z,100.00
2024-02-07T08:55:16.691Z,100.00
2024-02-07T08:57:43.859Z,100.00
2024-02-07T09:00:11.271Z,100.00
2024-02-07T09:02:37.674Z,100.00
2024-02-07T09:05:08.020Z,100.00
2024-02-07T09:07:35.057Z,100.00
2024-02-07T09:10:02.212Z,100.00
2024-02-07T09:12:28.882Z,100.00
2024-02-07T09:14:59.840Z,100.00
2024-02-07T09:17:27.320Z,100.00
2024-02-07T09:19:54.532Z,100.00
2024-02-07T09:22:20.984Z,100.00
2024-02-07T09:24:47.660Z,100.00
2024-02-07T09:27:14.173Z,100.00
2024-02-07T09:29:40.885Z,100.00
2024-02-07T09:32:07.705Z,100.00
2024-02-07T09:34:34.541Z,100.00
2024-02-07T09:37:02.240Z,100.00
2024-02-07T09:39:29.073Z,100.00
2024-02-07T09:41:59.466Z,100.00
2024-02-07T09:44:29.030Z,100.00
2024-02-07T09:47:00.215Z,100.00
2024-02-07T09:49:29.562Z,100.00
2024-02-07T09:51:57.228Z,100.00
2024-02-07T09:54:24.587Z,100.00
2024-02-07T09:56:52.760Z,100.00
2024-02-07T09:59:21.253Z,100.00
2024-02-07T10:01:48.310Z,100.00
2024-02-07T10:04:30.822Z,100.00
2024-02-07T10:06:58.234Z,100.00
2024-02-07T10:09:29.376Z,100.00
2024-02-07T10:11:57.248Z,100.00
2024-02-07T10:14:26.098Z,100.00
2024-02-07T10:16:53.576Z,100.00
2024-02-07T10:19:21.387Z,100.00
2024-02-07T10:21:48.824Z,100.00
2024-02-07T10:24:16.432Z,100.00
2024-02-07T10:26:47.592Z,100.00
2024-02-07T10:29:15.331Z,100.00
2024-02-07T10:31:42.478Z,100.00
2024-02-07T10:34:20.265Z,100.00
2024-02-07T10:36:46.940Z,100.00
2024-02-07T10:39:13.827Z,100.00
2024-02-07T10:41:40.175Z,100.00
2024-02-07T10:44:08.599Z,100.00
2024-02-07T10:46:35.766Z,100.00
2024-02-07T10:49:03.350Z,100.00
2024-02-07T10:51:33.695Z,100.00
2024-02-07T10:54:05.510Z,100.00
2024-02-07T10:56:37.797Z,100.00
2024-02-07T10:59:05.381Z,100.00
2024-02-07T11:01:32.945Z,100.00
2024-02-07T11:04:00.780Z,100.00
2024-02-07T11:06:28.511Z,100.00
2024-02-07T11:08:57.331Z,100.00
2024-02-07T11:11:28.478Z,100.00
2024-02-07T11:13:57.802Z,100.00
2024-02-07T11:16:24.609Z,100.00
2024-02-07T11:18:52.099Z,100.00
2024-02-07T11:21:24.732Z,100.00
2024-02-07T11:23:54.120Z,100.00
2024-02-07T11:26:21.958Z,100.00
2024-02-07T11:28:48.980Z,100.00
2024-02-07T11:31:17.416Z,100.00
2024-02-07T11:33:48.087Z,100.00
2024-02-07T11:36:16.710Z,100.00
2024-02-07T11:38:48.360Z,100.00
2024-02-07T11:41:21.235Z,100.00
2024-02-07T11:43:54.408Z,100.00
2024-02-07T11:46:23.817Z,100.00
2024-02-07T11:48:54.756Z,100.00
2024-02-07T11:51:25.638Z,100.00
2024-02-07T11:54:01.226Z,100.00
2024-02-07T11:56:30.820Z,100.00
2024-02-07T11:58:59.857Z,100.00
2024-02-07T12:01:28.127Z,100.00
2024-02-07T12:03:58.619Z,100.00
2024-02-07T12:06:25.841Z,100.00
2024-02-07T12:08:54.610Z,100.00
2024-02-07T12:11:21.319Z,100.00
2024-02-07T12:13:48.128Z,100.00
2024-02-07T12:16:17.813Z,100.00
2024-02-07T12:18:45.355Z,100.00
2024-02-07T12:21:11.990Z,100.00
2024-02-07T12:23:38.830Z,100.00
2024-02-07T12:26:05.495Z,100.00
2024-02-07T12:28:32.567Z,100.00
2024-02-07T12:31:00.132Z,100.00
2024-02-07T12:33:29.826Z,100.00
2024-02-07T12:35:58.346Z,100.00
2024-02-07T12:38:25.478Z,100.00
2024-02-07T12:40:54.081Z,100.00
2024-02-07T12:43:26.542Z,100.00
2024-02-07T12:45:56.192Z,100.00
2024-02-07T12:48:24.250Z,100.00
2024-02-07T12:50:53.751Z,100.00
2024-02-07T12:53:21.389Z,100.00
2024-02-07T12:55:54.546Z,100.00
2024-02-07T12:58:21.743Z,100.00
2024-02-07T13:00:48.439Z,100.00
2024-02-07T13:03:15.370Z,100.00
2024-02-07T13:05:42.061Z,100.00
2024-02-07T13:08:12.013Z,100.00
2024-02-07T13:10:39.019Z,100.00
2024-02-07T13:13:08.251Z,100.00
2024-02-07T13:15:34.881Z,100.00
2024-02-07T13:18:02.996Z,100.00
2024-02-07T13:20:29.784Z,99.88
2024-02-07T13:22:57.086Z,99.03
2024-02-07T13:25:24.587Z,98.88
2024-02-07T13:27:51.389Z,98.19
2024-02-07T13:30:18.288Z,98.80
2024-02-07T13:32:45.572Z,98.42
2024-02-07T13:35:12.335Z,97.24
2024-02-07T13:37:39.051Z,97.10
2024-02-07T13:40:06.648Z,97.41
2024-02-07T13:42:33.807Z,95.88
2024-02-07T13:45:00.418Z,95.69
2024-02-07T13:47:27.440Z,95.89
2024-02-07T13:49:54.313Z,94.73
2024-02-07T13:52:22.101Z,94.42
2024-02-07T13:54:48.611Z,94.26
2024-02-07T13:57:15.683Z,94.09
2024-02-07T13:59:42.393Z,94.75
2024-02-07T14:02:09.552Z,94.10
2024-02-07T14:04:36.307Z,93.00
2024-02-07T14:07:03.642Z,93.59
2024-02-07T14:09:30.222Z,93.69
2024-02-07T14:11:56.926Z,93.94
2024-02-07T14:14:24.261Z,94.27
2024-02-07T14:16:51.229Z,94.17
2024-02-07T14:19:18.647Z,94.42
2024-02-07T14:21:45.538Z,95.32
2024-02-07T14:24:12.507Z,95.08
2024-02-07T14:26:39.248Z,93.16
2024-02-07T14:29:05.922Z,92.39
2024-02-07T14:31:34.053Z,92.90
2024-02-07T14:34:00.823Z,91.41
2024-02-07T14:36:27.817Z,92.38
2024-02-07T14:38:54.511Z,91.66
2024-02-07T14:41:22.986Z,91.68
2024-02-07T14:43:49.857Z,92.29
2024-02-07T14:46:17.266Z,92.83
2024-02-07T14:48:44.686Z,92.83
2024-02-07T14:51:11.942Z,93.22
2024-02-07T14:53:38.950Z,93.17
2024-02-07T14:56:08.786Z,94.41
2024-02-07T14:58:35.541Z,94.46
2024-02-07T15:01:02.748Z,94.76
2024-02-07T15:03:29.741Z,95.14
2024-02-07T15:05:57.070Z,95.19
2024-02-07T15:08:24.886Z,94.93
2024-02-07T15:10:52.392Z,95.36
2024-02-07T15:13:19.278Z,95.71
2024-02-07T15:15:47.107Z,95.35
2024-02-07T15:18:14.223Z,95.56
2024-02-07T15:20:41.548Z,95.49
2024-02-07T15:23:08.543Z,95.35
2024-02-07T15:25:35.541Z,95.37
2024-02-07T15:28:02.767Z,95.65
2024-02-07T15:30:29.793Z,95.38
2024-02-07T15:32:56.436Z,94.89
2024-02-07T15:35:23.624Z,95.04
2024-02-07T15:37:50.376Z,95.21
2024-02-07T15:40:18.083Z,94.92
2024-02-07T15:42:44.613Z,94.89
2024-02-07T15:45:11.850Z,95.22
2024-02-07T15:47:38.659Z,95.15
2024-02-07T15:50:08.545Z,95.49
2024-02-07T15:52:36.775Z,95.87
2024-02-07T15:55:04.089Z,95.08
2024-02-07T15:57:30.703Z,95.44
2024-02-07T15:59:57.463Z,94.51
2024-02-07T16:02:24.685Z,94.41
2024-02-07T16:04:52.067Z,93.82
2024-02-07T16:07:18.830Z,93.50
2024-02-07T16:09:46.191Z,93.20
2024-02-07T16:12:12.852Z,93.23
2024-02-07T16:14:39.644Z,92.96
2024-02-07T16:17:06.400Z,92.79
2024-02-07T16:19:33.612Z,92.11
2024-02-07T16:22:00.571Z,92.19
2024-02-07T16:24:28.506Z,92.07
2024-02-07T16:26:56.044Z,91.86
2024-02-07T16:29:24.793Z,90.88
2024-02-07T16:31:51.821Z,91.15
2024-02-07T16:34:18.851Z,91.08
2024-02-07T16:36:45.680Z,91.01
2024-02-07T16:39:12.749Z,91.09
2024-02-07T16:41:39.335Z,90.74
2024-02-07T16:44:07.913Z,90.77
2024-02-07T16:46:34.780Z,90.79
2024-02-07T16:49:03.470Z,91.27
2024-02-07T16:51:31.486Z,90.90
2024-02-07T16:53:58.924Z,90.98
2024-02-07T16:56:25.774Z,91.21
2024-02-07T16:58:52.953Z,91.21
2024-02-07T17:01:53.136Z,90.97
2024-02-07T17:04:20.554Z,90.59
2024-02-07T17:06:47.571Z,91.52
2024-02-07T17:09:14.533Z,90.99
2024-02-07T17:11:41.102Z,90.99
2024-02-07T17:14:08.259Z,90.83
2024-02-07T17:16:34.918Z,91.30
2024-02-07T17:19:01.994Z,91.47
2024-02-07T17:21:28.649Z,91.48
2024-02-07T17:23:57.614Z,91.79
2024-02-07T17:26:24.565Z,91.64
2024-02-07T17:28:52.972Z,91.67
2024-02-07T17:31:21.780Z,92.05
2024-02-07T17:33:48.865Z,92.00
2024-02-07T17:36:15.798Z,91.70
2024-02-07T17:38:43.986Z,92.27
2024-02-07T17:41:11.750Z,92.06
2024-02-07T17:43:39.133Z,92.02
2024-02-07T17:46:05.739Z,91.98
2024-02-07T17:48:32.739Z,92.10
2024-02-07T17:51:01.683Z,92.35
2024-02-07T17:53:28.604Z,91.84
2024-02-07T17:55:55.211Z,92.00
2024-02-07T17:58:22.183Z,91.87
2024-02-07T18:00:48.768Z,91.85
2024-02-07T18:03:15.849Z,91.71
2024-02-07T18:05:44.039Z,91.65
2024-02-07T18:08:11.305Z,92.12
2024-02-07T18:10:39.452Z,91.14
2024-02-07T18:13:06.850Z,90.55
2024-02-07T18:18:03.349Z,90.35
2024-02-07T18:20:32.539Z,90.07
2024-02-07T18:23:00.154Z,90.19
2024-02-07T18:25:27.198Z,90.09
2024-02-07T18:27:54.198Z,90.57
2024-02-07T18:30:21.340Z,90.92
2024-02-07T18:32:48.915Z,90.64
2024-02-07T18:35:16.549Z,90.25
2024-02-07T18:37:43.614Z,90.20
2024-02-07T18:40:11.084Z,90.82
2024-02-07T18:42:40.229Z,91.62
2024-02-07T18:45:06.997Z,91.71
2024-02-07T18:47:33.885Z,91.82
2024-02-07T18:50:00.529Z,92.45
2024-02-07T18:52:27.783Z,92.81
2024-02-07T18:54:54.479Z,92.67
2024-02-07T18:57:21.604Z,92.85
2024-02-07T18:59:48.194Z,92.25
2024-02-07T19:02:18.662Z,92.61
2024-02-07T19:04:47.184Z,93.14
2024-02-07T19:07:14.169Z,92.72
2024-02-07T19:09:40.662Z,92.42
2024-02-07T19:12:07.610Z,93.06
2024-02-07T19:14:34.534Z,92.85
2024-02-07T19:17:01.313Z,92.86
2024-02-07T19:19:27.893Z,91.84
2024-02-07T19:21:54.805Z,90.45
2024-02-07T19:24:21.393Z,88.40
2024-02-07T19:26:51.038Z,88.44
2024-02-07T19:29:21.659Z,88.91
2024-02-07T19:31:48.556Z,88.30
2024-02-07T19:34:15.662Z,87.77
2024-02-07T19:36:42.650Z,86.97
2024-02-07T19:39:09.174Z,87.67
2024-02-07T19:41:36.194Z,87.36
2024-02-07T19:44:02.808Z,87.03
2024-02-07T19:46:30.295Z,86.68
2024-02-07T19:48:57.382Z,86.51
2024-02-07T19:51:27.041Z,87.29
2024-02-07T19:53:54.026Z,87.31
2024-02-07T19:56:20.923Z,87.14
2024-02-07T19:58:48.087Z,87.73
2024-02-07T20:01:16.452Z,87.91
2024-02-07T20:03:43.338Z,88.30
2024-02-07T20:06:12.719Z,88.50
2024-02-07T20:08:39.432Z,88.39
2024-02-07T20:11:06.358Z,87.88
2024-02-07T20:13:33.330Z,87.75
2024-02-07T20:16:00.291Z,88.15
2024-02-07T20:18:26.921Z,87.88
2024-02-07T20:20:56.537Z,88.14
2024-02-07T20:23:25.180Z,88.14
2024-02-07T20:26:04.615Z,88.53
2024-02-07T20:28:36.909Z,88.65
2024-02-07T20:31:04.562Z,88.65
2024-02-07T20:33:31.413Z,88.87
2024-02-07T20:35:58.632Z,89.53
2024-02-07T20:38:25.366Z,89.02
2024-02-07T20:40:52.430Z,89.02
2024-02-07T20:43:20.234Z,88.23
2024-02-07T20:45:47.328Z,87.79
2024-02-07T20:48:14.242Z,88.13
2024-02-07T20:50:41.451Z,87.92
2024-02-07T20:53:08.491Z,87.48
2024-02-07T20:55:35.954Z,87.21
2024-02-07T20:58:03.234Z,86.92
2024-02-07T21:00:33.181Z,87.03
2024-02-07T21:03:03.018Z,86.89
2024-02-07T21:05:31.458Z,86.65
2024-02-07T21:07:59.032Z,86.88
2024-02-07T21:10:26.344Z,86.26
2024-02-07T21:12:53.079Z,86.38
2024-02-07T21:15:19.889Z,87.36
2024-02-07T21:17:47.191Z,87.38
2024-02-07T21:20:17.166Z,87.22
2024-02-07T21:22:45.837Z,87.56
2024-02-07T21:25:13.604Z,87.69
2024-02-07T21:27:40.756Z,88.11
2024-02-07T21:30:10.129Z,87.26
2024-02-07T21:32:36.844Z,87.09
2024-02-07T21:35:05.989Z,86.68
2024-02-07T21:37:32.768Z,86.83
2024-02-07T21:40:00.546Z,86.62
2024-02-07T21:42:27.019Z,86.19
2024-02-07T21:44:53.886Z,85.68
2024-02-07T21:47:20.564Z,86.21
2024-02-07T21:49:47.465Z,86.04
2024-02-07T21:52:14.149Z,86.49
2024-02-07T21:54:42.018Z,85.82
2024-02-07T21:57:08.608Z,86.07
2024-02-07T21:59:35.507Z,86.47
2024-02-07T22:02:02.143Z,85.79
2024-02-07T22:04:29.777Z,87.21
2024-02-07T22:06:56.538Z,86.78
2024-02-07T22:09:23.471Z,86.97
2024-02-07T22:11:50.446Z,87.66
2024-02-07T22:14:19.597Z,87.89
2024-02-07T22:16:46.182Z,87.45
2024-02-07T22:19:13.526Z,87.63
2024-02-07T22:21:40.265Z,88.35
2024-02-07T22:24:07.763Z,88.19
2024-02-07T22:26:34.189Z,88.85
2024-02-07T22:29:01.706Z,88.79
2024-02-07T22:31:31.895Z,87.96
2024-02-07T22:34:00.247Z,87.70
2024-02-07T22:36:26.845Z,87.43
2024-02-07T22:38:56.583Z,87.86
2024-02-07T22:41:23.695Z,87.99
2024-02-07T22:43:50.792Z,88.49
2024-02-07T22:46:17.622Z,88.00
2024-02-07T22:48:44.471Z,88.03
2024-02-07T22:51:10.939Z,88.91
2024-02-07T22:53:38.107Z,88.91
2024-02-07T22:56:06.822Z,88.69
2024-02-07T22:58:33.891Z,89.07
2024-02-07T23:01:00.586Z,89.87
2024-02-07T23:03:27.401Z,89.88
2024-02-07T23:05:54.065Z,89.91
2024-02-07T23:08:20.809Z,90.22
2024-02-07T23:10:49.020Z,89.92
2024-02-07T23:13:16.062Z,89.87
2024-02-07T23:15:42.916Z,90.47
2024-02-07T23:18:09.981Z,90.82
2024-02-07T23:20:36.943Z,91.22
2024-02-07T23:23:03.999Z,90.50
2024-02-07T23:25:31.195Z,89.81
2024-02-07T23:27:58.259Z,92.09
2024-02-07T23:30:25.071Z,92.83
2024-02-07T23:32:52.963Z,91.92
2024-02-07T23:35:19.413Z,91.71
2024-02-07T23:37:46.529Z,92.73
2024-02-07T23:40:13.583Z,92.18
2024-02-07T23:42:40.694Z,92.05
2024-02-07T23:45:09.056Z,92.17
2024-02-07T23:47:36.122Z,91.88
2024-02-07T23:50:03.015Z,91.98
2024-02-07T23:52:30.245Z,92.09
2024-02-07T23:54:56.773Z,91.93
2024-02-07T23:57:24.131Z,91.87
2024-02-07T23:59:50.520Z,91.29
